createdAt,value
2019-04-22T00:00:01.040Z,1.40
2019-04-22T00:03:03.618Z,2.20
2019-04-22T00:05:56.170Z,1.80
2019-04-22T00:08:29.546Z,1.77
2019-04-22T00:11:07.932Z,1.30
2019-04-22T00:13:40.183Z,1.80
2019-04-22T00:15:59.322Z,1.80
2019-04-22T00:18:46.837Z,1.90
2019-04-22T00:21:04.701Z,1.90
2019-04-22T00:23:39.204Z,2.07
2019-04-22T00:26:10.945Z,1.77
2019-04-22T00:28:43.764Z,1.87
2019-04-22T00:31:23.599Z,1.90
2019-04-22T00:33:57.696Z,1.73
2019-04-22T00:36:27.588Z,1.67
2019-04-22T00:38:58.447Z,1.70
2019-04-22T00:42:09.938Z,1.47
2019-04-22T00:44:46.679Z,1.83
2019-04-22T00:47:17.957Z,2.20
2019-04-22T00:52:16.710Z,1.93
2019-04-22T00:54:55.882Z,2.13
2019-04-22T00:57:21.815Z,1.60
2019-04-22T00:59:55.069Z,2.23
2019-04-22T01:02:27.744Z,2.40
2019-04-22T01:05:00.901Z,1.57
2019-04-22T01:07:30.809Z,1.83
2019-04-22T01:10:19.060Z,2.10
2019-04-22T01:13:04.795Z,1.70
2019-04-22T01:15:40.514Z,1.80
2019-04-22T01:18:09.319Z,1.83
2019-04-22T01:21:05.836Z,1.77
2019-04-22T01:23:19.253Z,1.83
2019-04-22T01:25:57.090Z,1.97
2019-04-22T01:28:23.814Z,1.67
2019-04-22T01:30:50.992Z,1.70
2019-04-22T01:33:21.544Z,1.70
2019-04-22T01:36:08.041Z,1.83
2019-04-22T01:38:45.379Z,1.43
2019-04-22T01:41:30.343Z,1.63
2019-04-22T01:44:00.304Z,1.67
2019-04-22T01:46:25.771Z,2.10
2019-04-22T01:48:47.717Z,2.10
2019-04-22T01:51:12.237Z,2.00
2019-04-22T01:53:51.347Z,2.03
2019-04-22T01:56:21.715Z,1.70
2019-04-22T01:58:44.328Z,1.87
2019-04-22T02:01:37.716Z,1.50
2019-04-22T02:04:00.913Z,1.73
2019-04-22T02:06:35.219Z,1.80
2019-04-22T02:09:09.457Z,2.00
2019-04-22T02:11:38.913Z,2.27
2019-04-22T02:14:04.673Z,1.80
2019-04-22T02:16:34.259Z,1.87
2019-04-22T02:19:11.640Z,2.00
2019-04-22T02:21:38.649Z,2.37
2019-04-22T02:24:05.285Z,1.80
2019-04-22T02:29:11.033Z,1.93
2019-04-22T02:31:48.962Z,1.87
2019-04-22T02:34:22.633Z,2.00
2019-04-22T02:37:10.614Z,2.17
2019-04-22T02:39:19.879Z,2.03
2019-04-22T02:41:56.797Z,2.03
2019-04-22T02:44:33.329Z,2.00
2019-04-22T02:47:11.935Z,1.97
2019-04-22T02:57:35.271Z,1.80
2019-04-22T02:59:58.382Z,1.80
2019-04-22T03:02:46.079Z,1.73
2019-04-22T03:05:07.529Z,1.73
2019-04-22T03:07:26.000Z,1.70
2019-04-22T03:09:59.442Z,2.07
2019-04-22T03:12:23.739Z,1.67
2019-04-22T03:14:56.307Z,2.00
2019-04-22T03:17:28.676Z,2.00
2019-04-22T03:20:41.990Z,2.30
2019-04-22T03:23:05.593Z,2.33
2019-04-22T03:25:51.548Z,2.00
2019-04-22T03:28:19.227Z,1.80
2019-04-22T03:31:03.525Z,1.83
2019-04-22T03:38:35.562Z,1.70
2019-04-22T03:41:01.339Z,1.60
2019-04-22T03:43:27.412Z,1.53
2019-04-22T03:46:03.833Z,1.63
2019-04-22T03:48:45.366Z,1.20
2019-04-22T03:51:18.304Z,1.50
2019-04-22T03:53:38.289Z,1.27
2019-04-22T03:56:18.494Z,1.40
2019-04-22T03:58:37.268Z,1.70
2019-04-22T04:01:18.735Z,2.10
2019-04-22T04:03:39.579Z,1.67
2019-04-22T04:06:05.375Z,2.03
2019-04-22T04:08:48.128Z,1.93
2019-04-22T04:11:16.396Z,1.93
2019-04-22T04:13:57.967Z,2.10
2019-04-22T04:16:12.538Z,1.53
2019-04-22T04:18:56.185Z,1.60
2019-04-22T04:21:26.708Z,1.90
2019-04-22T04:24:01.139Z,1.60
2019-04-22T04:26:26.719Z,1.57
2019-04-22T04:31:25.524Z,1.77
2019-04-22T04:33:48.354Z,2.20
2019-04-22T04:36:27.079Z,1.50
2019-04-22T04:41:26.800Z,1.70
2019-04-22T04:44:59.267Z,1.90
2019-04-22T04:49:34.674Z,1.53
2019-04-22T04:54:35.938Z,1.87
2019-04-22T04:57:07.241Z,1.50
2019-04-22T04:59:59.247Z,1.37
2019-04-22T05:02:10.388Z,1.40
2019-04-22T05:04:51.090Z,1.37
2019-04-22T05:07:18.764Z,1.93
2019-04-22T05:12:33.869Z,2.00
2019-04-22T05:14:36.851Z,1.97
2019-04-22T05:17:15.781Z,1.73
2019-04-22T05:20:05.259Z,1.60
2019-04-22T05:22:28.360Z,2.27
2019-04-22T05:24:59.806Z,1.80
2019-04-22T05:30:23.457Z,1.40
2019-04-22T05:32:38.530Z,1.50
2019-04-22T05:35:06.898Z,1.40
2019-04-22T05:37:43.253Z,1.20
2019-04-22T05:42:46.267Z,1.20
2019-04-22T05:45:41.167Z,1.37
2019-04-22T05:48:18.742Z,1.50
2019-04-22T05:51:01.036Z,1.60
2019-04-22T05:53:40.569Z,1.30
2019-04-22T05:58:58.625Z,1.30
2019-04-22T06:02:01.181Z,1.50
2019-04-22T06:04:51.794Z,1.67
2019-04-22T06:07:47.230Z,1.60
2019-04-22T06:16:30.829Z,1.77
2019-04-22T06:19:03.239Z,1.87
2019-04-22T06:21:35.600Z,1.50
2019-04-22T06:29:22.202Z,1.85
2019-04-22T06:32:11.807Z,1.50
2019-04-22T06:34:22.302Z,1.60
2019-04-22T06:36:53.943Z,1.47
2019-04-22T06:39:28.225Z,1.82
2019-04-22T06:42:06.820Z,1.60
2019-04-22T06:47:25.138Z,1.32
2019-04-22T06:58:29.045Z,1.67
2019-04-22T07:01:18.219Z,1.65
2019-04-22T07:03:56.945Z,1.85
2019-04-22T07:06:48.139Z,2.00
2019-04-22T07:12:26.057Z,1.45
2019-04-22T07:18:24.699Z,1.55
2019-04-22T07:21:01.391Z,1.77
2019-04-22T07:24:02.742Z,1.55
2019-04-22T07:27:08.445Z,1.82
2019-04-22T07:29:44.719Z,1.67
2019-04-22T07:32:53.611Z,1.25
2019-04-22T07:35:08.453Z,1.82
2019-04-22T07:40:38.922Z,1.60
2019-04-22T07:44:07.625Z,1.40
2019-04-22T07:52:52.161Z,1.15
2019-04-22T07:55:38.115Z,1.30
2019-04-22T07:58:43.539Z,1.30
2019-04-22T08:01:20.343Z,1.07
2019-04-22T08:04:53.763Z,1.72
2019-04-22T08:07:50.555Z,1.30
2019-04-22T08:10:16.689Z,1.25
2019-04-22T08:13:14.605Z,1.55
2019-04-22T08:16:38.586Z,1.47
2019-04-22T08:22:47.884Z,1.40
2019-04-22T08:25:31.531Z,1.60
2019-04-22T08:28:17.470Z,1.70
2019-04-22T08:31:26.300Z,1.33
2019-04-22T08:35:18.664Z,1.45
2019-04-22T08:40:56.132Z,1.33
2019-04-22T08:47:59.190Z,1.20
2019-04-22T08:50:39.815Z,1.23
2019-04-22T08:53:33.751Z,1.57
2019-04-22T08:56:25.470Z,1.43
2019-04-22T09:00:21.517Z,1.43
2019-04-22T09:02:49.566Z,1.27
2019-04-22T09:08:34.389Z,1.40
2019-04-22T09:14:37.818Z,1.50
2019-04-22T09:17:58.158Z,1.57
2019-04-22T09:24:06.868Z,1.80
2019-04-22T09:27:10.114Z,1.83
2019-04-22T09:29:58.484Z,1.67
2019-04-22T09:33:43.107Z,1.63
2019-04-22T09:47:19.199Z,1.03
2019-04-22T09:50:22.349Z,1.60
2019-04-22T09:53:08.400Z,1.53
2019-04-22T09:55:57.100Z,1.00
2019-04-22T09:58:57.015Z,2.40
2019-04-22T10:01:47.348Z,1.50
2019-04-22T10:04:27.625Z,0.90
2019-04-22T10:07:13.469Z,1.07
2019-04-22T10:12:19.353Z,1.17
2019-04-22T10:14:49.243Z,1.00
2019-04-22T10:17:32.157Z,1.20
2019-04-22T10:20:10.520Z,1.13
2019-04-22T10:23:20.212Z,1.10
2019-04-22T10:26:00.813Z,1.20
2019-04-22T10:28:39.701Z,1.20
2019-04-22T10:31:31.104Z,1.43
2019-04-22T10:37:18.410Z,1.33
2019-04-22T10:40:23.638Z,1.40
2019-04-22T10:43:48.533Z,1.57
2019-04-22T10:47:25.676Z,1.47
2019-04-22T10:50:06.730Z,1.43
2019-04-22T10:59:36.568Z,1.30
2019-04-22T11:08:50.216Z,1.33
2019-04-22T11:15:46.849Z,1.53
2019-04-22T11:22:07.737Z,1.00
2019-04-22T11:26:06.011Z,1.80
2019-04-22T11:29:19.545Z,1.10
2019-04-22T11:33:24.409Z,1.33
2019-04-22T11:40:04.650Z,1.13
2019-04-22T11:42:34.344Z,1.20
2019-04-22T11:46:01.213Z,1.37
2019-04-22T11:49:05.712Z,1.40
2019-04-22T11:51:56.862Z,0.90
2019-04-22T11:55:02.268Z,1.10
2019-04-22T11:58:21.932Z,1.03
2019-04-22T12:01:14.877Z,1.47
2019-04-22T12:03:55.883Z,1.00
2019-04-22T12:07:08.798Z,1.27
2019-04-22T12:10:18.964Z,1.10
2019-04-22T12:13:28.186Z,1.07
2019-04-22T12:16:27.382Z,0.87
2019-04-22T12:19:29.410Z,0.83
2019-04-22T12:22:13.256Z,0.90
2019-04-22T12:25:46.167Z,0.97
2019-04-22T12:32:11.653Z,1.33
2019-04-22T12:35:28.368Z,1.10
2019-04-22T12:38:24.312Z,1.20
2019-04-22T12:41:10.401Z,1.17
2019-04-22T12:46:48.065Z,1.10
2019-04-22T12:50:08.798Z,0.90
2019-04-22T12:56:37.598Z,0.80
2019-04-22T12:59:14.048Z,0.90
2019-04-22T13:01:58.614Z,1.20
2019-04-22T13:05:20.068Z,0.70
2019-04-22T13:11:14.476Z,1.23
2019-04-22T13:14:28.829Z,0.63
2019-04-22T13:17:46.254Z,0.90
2019-04-22T13:20:50.595Z,1.10
2019-04-22T13:24:07.077Z,0.97
2019-04-22T13:33:59.748Z,1.10
2019-04-22T13:37:34.927Z,1.13
2019-04-22T13:40:40.481Z,0.87
2019-04-22T13:48:38.422Z,1.47
2019-04-22T13:52:02.247Z,0.70
2019-04-22T13:58:04.129Z,1.10
2019-04-22T14:00:42.250Z,1.27
2019-04-22T14:03:35.310Z,0.83
2019-04-22T14:06:18.692Z,0.80
2019-04-22T14:12:15.441Z,1.13
2019-04-22T14:15:20.452Z,1.00
2019-04-22T14:18:16.903Z,1.27
2019-04-22T14:21:36.676Z,0.60
2019-04-22T14:24:38.665Z,0.87
2019-04-22T14:27:30.565Z,0.67
2019-04-22T14:30:04.680Z,0.90
2019-04-22T14:41:51.480Z,0.80
2019-04-22T14:45:13.415Z,0.60
2019-04-22T14:48:41.629Z,1.23
2019-04-22T14:51:46.420Z,1.20
2019-04-22T14:55:10.159Z,0.67
2019-04-22T14:57:59.141Z,1.53
2019-04-22T15:07:44.763Z,0.73
2019-04-22T15:10:58.107Z,0.90
2019-04-22T15:15:11.298Z,0.80
2019-04-22T15:17:20.775Z,1.23
2019-04-22T15:24:06.761Z,0.80
2019-04-22T15:36:13.991Z,0.83
2019-04-22T15:37:46.108Z,0.77
2019-04-22T15:41:12.785Z,1.00
2019-04-22T15:51:30.808Z,0.80
2019-04-22T15:58:48.023Z,1.00
2019-04-22T16:01:41.044Z,0.90
2019-04-22T16:04:34.696Z,0.70
2019-04-22T16:19:04.466Z,0.67
2019-04-22T16:22:03.061Z,0.60
2019-04-22T16:25:45.266Z,0.87
2019-04-22T16:28:33.458Z,0.83
2019-04-22T16:31:21.805Z,0.57
2019-04-22T16:34:04.632Z,0.50
2019-04-22T16:37:07.178Z,0.50
2019-04-22T16:40:18.610Z,0.70
2019-04-22T16:43:17.212Z,0.57
2019-04-22T16:45:59.408Z,0.93
2019-04-22T16:48:40.020Z,1.00
2019-04-22T16:51:16.223Z,0.53
2019-04-22T16:53:58.119Z,0.50
2019-04-22T16:56:48.079Z,0.60
2019-04-22T16:59:48.951Z,0.43
2019-04-22T17:02:43.381Z,0.50
2019-04-22T17:06:13.820Z,1.03
2019-04-22T17:08:51.000Z,0.40
2019-04-22T17:11:43.589Z,0.67
2019-04-22T17:15:03.875Z,0.57
2019-04-22T17:18:07.492Z,0.60
2019-04-22T17:21:08.521Z,0.40
2019-04-22T17:23:59.286Z,0.30
2019-04-22T17:26:46.420Z,0.40
2019-04-22T17:29:32.691Z,0.67
2019-04-22T17:32:54.573Z,0.60
2019-04-22T17:35:48.509Z,0.37
2019-04-22T17:38:44.029Z,0.63
2019-04-22T17:42:22.427Z,0.50
2019-04-22T17:46:32.274Z,0.97
2019-04-22T17:49:10.473Z,0.60
2019-04-22T17:51:55.068Z,0.53
2019-04-22T17:54:07.327Z,0.70
2019-04-22T17:56:48.639Z,0.80
2019-04-22T17:59:39.235Z,0.90
2019-04-22T18:02:06.455Z,0.80
2019-04-22T18:08:25.172Z,0.50
2019-04-22T18:11:07.917Z,1.17
2019-04-22T18:14:11.599Z,0.90
2019-04-22T18:19:51.813Z,1.10
2019-04-22T18:22:21.780Z,1.00
2019-04-22T18:28:15.098Z,0.77
2019-04-22T18:30:35.275Z,0.73
2019-04-22T18:34:09.784Z,0.90
2019-04-22T18:36:19.758Z,0.70
2019-04-22T18:39:04.615Z,0.80
2019-04-22T18:41:34.193Z,0.97
2019-04-22T18:44:08.322Z,0.70
2019-04-22T18:46:37.125Z,0.80
2019-04-22T18:49:11.315Z,1.00
2019-04-22T18:52:04.558Z,0.77
2019-04-22T18:54:45.701Z,0.87
2019-04-22T18:58:18.778Z,0.70
2019-04-22T19:01:01.875Z,0.93
2019-04-22T19:03:56.155Z,0.80
2019-04-22T19:10:53.543Z,0.90
2019-04-22T19:16:00.544Z,0.70
2019-04-22T19:18:31.867Z,0.80
2019-04-22T19:21:13.082Z,0.80
2019-04-22T19:23:51.998Z,1.00
2019-04-22T19:29:31.607Z,0.77
2019-04-22T19:33:46.246Z,0.73
2019-04-22T19:34:42.860Z,0.80
2019-04-22T19:51:24.312Z,0.70
2019-04-22T20:07:52.413Z,0.80
2019-04-22T20:10:51.085Z,0.80
2019-04-22T20:13:51.448Z,0.73
2019-04-22T20:16:10.088Z,0.77
2019-04-22T20:19:06.596Z,0.70
2019-04-22T20:21:35.141Z,1.00
2019-04-22T20:24:06.977Z,1.00
2019-04-22T20:29:58.055Z,0.90
2019-04-22T20:32:32.683Z,0.90
2019-04-22T20:35:07.431Z,1.00
2019-04-22T20:38:19.973Z,0.70
2019-04-22T20:40:54.987Z,0.77
2019-04-22T20:44:51.595Z,0.70
2019-04-22T20:47:26.533Z,0.90
2019-04-22T20:50:08.004Z,1.00
2019-04-22T20:52:50.246Z,1.10
2019-04-22T20:55:13.654Z,0.80
2019-04-22T20:58:18.018Z,1.00
2019-04-22T21:00:40.293Z,0.90
2019-04-22T21:03:07.294Z,0.80
2019-04-22T21:05:48.156Z,1.10
2019-04-22T21:08:30.465Z,1.20
2019-04-22T21:10:55.355Z,0.70
2019-04-22T21:13:26.117Z,0.70
2019-04-22T21:16:08.976Z,1.27
2019-04-22T21:18:51.624Z,1.10
2019-04-22T21:21:33.383Z,1.03
2019-04-22T21:23:58.352Z,1.23
2019-04-22T21:26:39.988Z,1.20
2019-04-22T21:29:12.982Z,1.17
2019-04-22T21:31:48.256Z,1.27
2019-04-22T21:34:55.465Z,1.30
2019-04-22T21:37:20.836Z,1.33
2019-04-22T21:39:47.949Z,1.13
2019-04-22T21:42:19.621Z,1.00
2019-04-22T21:44:47.780Z,1.13
2019-04-22T21:47:30.155Z,1.50
2019-04-22T21:50:18.315Z,1.50
2019-04-22T21:52:32.204Z,1.40
2019-04-22T21:55:13.115Z,1.10
2019-04-22T21:58:05.178Z,1.20
2019-04-22T22:03:10.405Z,1.87
2019-04-22T22:05:34.205Z,1.07
2019-04-22T22:08:33.705Z,1.30
2019-04-22T22:10:58.460Z,2.10
2019-04-22T22:13:31.640Z,1.87
2019-04-22T22:15:59.554Z,1.67
2019-04-22T22:18:27.613Z,1.13
2019-04-22T22:21:25.470Z,1.57
2019-04-22T22:23:39.461Z,1.90
2019-04-22T22:26:02.324Z,1.53
2019-04-22T22:31:22.217Z,1.77
2019-04-22T22:33:48.242Z,1.70
2019-04-22T22:36:34.057Z,1.60
2019-04-22T22:39:07.657Z,2.10
2019-04-22T22:41:30.139Z,1.77
2019-04-22T22:44:15.689Z,1.80
2019-04-22T22:47:09.701Z,1.77
2019-04-22T22:49:56.566Z,1.97
2019-04-22T22:53:17.084Z,1.50
2019-04-22T22:55:49.566Z,1.93
2019-04-22T22:58:16.392Z,1.90
2019-04-22T23:00:47.588Z,2.30
2019-04-22T23:03:40.576Z,1.70
2019-04-22T23:06:00.578Z,1.40
2019-04-22T23:08:26.487Z,1.47
2019-04-22T23:11:05.294Z,1.37
2019-04-22T23:13:33.498Z,1.40
2019-04-22T23:15:57.250Z,1.47
2019-04-22T23:18:12.157Z,1.60
2019-04-22T23:20:45.603Z,1.70
2019-04-22T23:23:35.607Z,1.60
2019-04-22T23:26:38.856Z,1.70
2019-04-22T23:29:18.373Z,2.27
2019-04-22T23:31:44.275Z,1.70
2019-04-22T23:34:26.549Z,1.50
2019-04-22T23:37:12.245Z,1.90
2019-04-22T23:39:53.383Z,1.63
2019-04-22T23:42:21.885Z,2.03
2019-04-22T23:44:50.195Z,1.97
2019-04-22T23:47:47.324Z,1.73
2019-04-22T23:50:32.253Z,1.97
2019-04-22T23:53:58.076Z,1.77
2019-04-22T23:56:17.203Z,1.73
